This is the latest recevied weather packets stored in our database for station/object E25WOP-13. If no packets are shown the sender has not sent any weather packets the latest 10 day(s).
| Time | Temp. | Humidity | Pressure | Rain* | Wind** | Luminosity | Snow |
|---|---|---|---|---|---|---|---|
| 1777612926 | 30.56° C | 84% | 1008.4 hPa | 0 mm | - | 651 W/m² | - |
| 1777612326 | 29.44° C | 86% | 1008.4 hPa | 0 mm | - | 799 W/m² | - |
| 1777611726 | 30° C | 78% | 1008.6 hPa | 0 mm | - | 718 W/m² | - |
| 1777611126 | 32.78° C | 72% | 1008.8 hPa | 0 mm | - | 310 W/m² | - |
| 1777610529 | 33.33° C | 66% | 1008.6 hPa | 0 mm | - | 1143 W/m² | - |
| 1777609926 | 32.78° C | 68% | 1008.6 hPa | 0 mm | - | 1144 W/m² | - |
| 1777609326 | 32.22° C | 70% | 1008.8 hPa | 0 mm | - | 1101 W/m² | - |
| 1777608726 | 33.33° C | 68% | 1008.8 hPa | 0 mm | - | 985 W/m² | - |
| 1777608126 | 33.33° C | 66% | 1008.7 hPa | 0 mm | - | 903 W/m² | - |
| 1777607526 | 33.33° C | 65% | 1008.7 hPa | 0 mm | - | 1103 W/m² | - |
| 1777606926 | 33.33° C | 65% | 1008.4 hPa | 0 mm | - | 1138 W/m² | - |
| 1777606326 | 33.33° C | 65% | 1008.5 hPa | 0 mm | - | 1137 W/m² | - |
| 1777605726 | 33.33° C | 65% | 1008.7 hPa | 0 mm | - | 1100 W/m² | - |
| 1777605126 | 31.67° C | 71% | 1008.9 hPa | 0 mm | - | 910 W/m² | - |
| 1777604526 | 32.78° C | 69% | 1008.9 hPa | 0 mm | - | 480 W/m² | - |
| 1777603926 | 32.78° C | 69% | 1009.1 hPa | 0 mm | - | 517 W/m² | - |
| 1777603326 | 32.78° C | 68% | 1009.2 hPa | 0 mm | - | 681 W/m² | - |
| 1777602726 | 33.33° C | 66% | 1009.3 hPa | 0 mm | - | 492 W/m² | - |
| 1777602126 | 33.33° C | 66% | 1009.3 hPa | 0 mm | - | 291 W/m² | - |
| 1777601526 | 32.22° C | 68% | 1009.7 hPa | 0 mm | - | 318 W/m² | - |
| 1777600925 | -17.78° C | - | 1009.3 hPa | 0 mm | - | - | - |
| 1777600326 | -17.78° C | - | 1009.4 hPa | 0 mm | - | - | - |
| 1777599726 | -17.78° C | - | 1009.4 hPa | 0 mm | - | - | - |
| 1777599125 | -17.78° C | - | 1009.4 hPa | 0 mm | - | - | - |
| 1777598526 | -17.78° C | - | 1009.2 hPa | 0 mm | - | - | - |
* Rain latest hour (hover to see other rain measurements)
** Current wind speed in m/s (hover to see current wind gust speed)